Time;durP1;ratioP1;P1;durP2;ratioP2;P2;SDS_P1;SDS_P2;PMS_P1;PMS_P2;Temp;Humidity;BMP_temperature;BMP_pressure;BME280_temperature;BME280_humidity;BME280_pressure;Samples;Min_cycle;Max_cycle;Signal;HPM_P1;HPM_P2
2023/02/15 00:00:17;;;;;;;53.97;11.55;;;;;;;-2.12;100.00;96814.81;5090872;28;20047;-72
2023/02/15 00:03:02;;;;;;;32.20;11.13;;;;;;;-2.23;100.00;96812.53;5080351;28;20091;-71
2023/02/15 00:05:30;;;;;;;59.95;12.18;;;;;;;-2.19;100.00;96813.84;5087259;28;20089;-72
2023/02/15 00:07:56;;;;;;;110.30;11.65;;;;;;;-2.24;100.00;96800.59;5083917;28;20376;-72
2023/02/15 00:10:23;;;;;;;79.50;11.98;;;;;;;-2.35;100.00;96805.06;5083526;28;20044;-71
2023/02/15 00:12:48;;;;;;;36.47;11.25;;;;;;;-2.25;100.00;96799.00;5089654;28;20041;-72
2023/02/15 00:15:14;;;;;;;92.25;12.15;;;;;;;-2.40;100.00;96796.19;5081306;28;20036;-72
2023/02/15 00:17:39;;;;;;;36.75;10.25;;;;;;;-2.33;100.00;96805.75;5090928;28;20538;-71
2023/02/15 00:20:06;;;;;;;35.60;10.05;;;;;;;-2.43;100.00;96802.47;5084777;28;20040;-72
2023/02/15 00:22:31;;;;;;;36.38;10.80;;;;;;;-2.49;100.00;96797.94;5084853;28;20040;-71
2023/02/15 00:24:56;;;;;;;68.22;11.23;;;;;;;-2.47;100.00;96796.00;5086595;28;20518;-72
2023/02/15 00:27:22;;;;;;;47.25;11.05;;;;;;;-2.43;100.00;96799.88;5087493;28;20041;-71
2023/02/15 00:29:48;;;;;;;66.57;10.05;;;;;;;-2.40;100.00;96793.63;5087571;28;20051;-71
2023/02/15 00:32:13;;;;;;;42.33;9.82;;;;;;;-2.62;100.00;96804.31;5087275;28;20454;-71
2023/02/15 00:34:39;;;;;;;23.67;9.95;;;;;;;-2.43;100.00;96797.31;5085663;28;20047;-71
2023/02/15 00:37:05;;;;;;;36.45;10.38;;;;;;;-2.44;100.00;96795.72;5091235;28;20036;-71
2023/02/15 00:39:30;;;;;;;86.68;10.82;;;;;;;-2.42;100.00;96793.78;5088674;28;20070;-72
2023/02/15 00:41:56;;;;;;;69.30;10.70;;;;;;;-2.66;100.00;96803.03;5087383;28;20123;-71
2023/02/15 00:44:21;;;;;;;33.63;10.07;;;;;;;-2.56;100.00;96795.16;5082217;28;20032;-71
2023/02/15 00:46:47;;;;;;;136.85;12.15;;;;;;;-2.65;100.00;96799.47;5084935;28;20040;-71
2023/02/15 00:49:12;;;;;;;51.05;10.20;;;;;;;-2.49;100.00;96792.78;5086491;28;20048;-72
2023/02/15 00:51:39;;;;;;;47.20;10.63;;;;;;;-2.58;100.00;96786.00;5086063;28;20044;-72
2023/02/15 00:54:05;;;;;;;85.70;10.57;;;;;;;-2.78;100.00;96787.00;5084650;28;20071;-72
2023/02/15 00:56:31;;;;;;;50.63;9.35;;;;;;;-2.53;100.00;96776.00;5080627;28;20036;-73
2023/02/15 00:58:56;;;;;;;28.17;9.43;;;;;;;-2.54;100.00;96779.53;5083466;28;20044;-73
2023/02/15 01:01:23;;;;;;;18.23;9.65;;;;;;;-2.51;100.00;96781.81;5081588;28;20036;-73
2023/02/15 01:03:48;;;;;;;20.92;9.98;;;;;;;-2.52;100.00;96778.44;5083580;28;20040;-73
2023/02/15 01:06:15;;;;;;;32.10;9.80;;;;;;;-2.77;100.00;96785.25;5088632;28;20561;-73
2023/02/15 01:08:41;;;;;;;21.95;8.27;;;;;;;-2.68;100.00;96774.00;5082823;28;20044;-72
2023/02/15 01:11:21;;;;;;;29.90;9.85;;;;;;;-2.80;100.00;96770.13;5084357;28;20040;-71
2023/02/15 01:13:49;;;;;;;60.45;9.30;;;;;;;-2.94;100.00;96761.19;5087944;28;20044;-72
2023/02/15 01:16:14;;;;;;;29.17;9.65;;;;;;;-2.68;100.00;96758.56;5086910;28;20047;-72
2023/02/15 01:18:40;;;;;;;43.10;8.82;;;;;;;-2.81;100.00;96761.56;5086176;28;20040;-72
2023/02/15 01:21:13;;;;;;;52.53;9.98;;;;;;;-2.82;100.00;96761.72;5084984;28;20432;-72
2023/02/15 01:23:40;;;;;;;23.00;8.88;;;;;;;-2.83;100.00;96754.94;5076717;28;20032;-72
2023/02/15 01:26:06;;;;;;;64.07;10.27;;;;;;;-2.99;100.00;96760.81;5081823;28;20036;-72
2023/02/15 01:28:32;;;;;;;33.33;10.50;;;;;;;-2.90;100.00;96761.66;5087254;28;20044;-72
2023/02/15 01:30:58;;;;;;;33.90;9.68;;;;;;;-2.98;100.00;96752.94;5080285;28;20457;-72
2023/02/15 01:33:24;;;;;;;22.73;9.77;;;;;;;-2.82;100.00;96747.03;5079981;28;20549;-73
2023/02/15 01:35:57;;;;;;;36.53;10.10;;;;;;;-2.90;100.00;96749.59;5082511;28;20059;-72
2023/02/15 01:38:22;;;;;;;22.55;8.88;;;;;;;-2.93;100.00;96749.09;5081028;28;20036;-73
2023/02/15 01:40:52;;;;;;;44.15;10.02;;;;;;;-3.07;100.00;96746.13;5081838;28;20048;-72
2023/02/15 01:43:18;;;;;;;39.40;10.57;;;;;;;-3.08;100.00;96752.25;5087760;28;20114;-72
2023/02/15 01:45:47;;;;;;;49.70;10.07;;;;;;;-3.03;100.00;96744.88;5087812;28;20067;-72
2023/02/15 01:48:22;;;;;;;33.47;10.15;;;;;;;-3.00;100.00;96744.56;5088515;28;20044;-73
2023/02/15 01:50:56;;;;;;;30.20;10.00;;;;;;;-3.25;100.00;96750.53;5085854;28;20130;-73
2023/02/15 01:53:26;;;;;;;27.65;11.13;;;;;;;-3.23;100.00;96740.88;5081078;28;20047;-73
2023/02/15 01:55:59;;;;;;;25.80;10.40;;;;;;;-3.08;100.00;96741.94;5085540;28;20047;-73
2023/02/15 01:58:27;;;;;;;21.08;9.65;;;;;;;-3.05;100.00;96736.47;5080628;28;20036;-73
2023/02/15 02:00:54;;;;;;;21.02;10.45;;;;;;;-3.04;100.00;96727.81;5083442;28;20098;-73
2023/02/15 02:03:38;;;;;;;21.25;11.45;;;;;;;-3.01;100.00;96727.50;5075162;28;20366;-73
2023/02/15 02:06:04;;;;;;;29.55;9.55;;;;;;;-2.93;100.00;96731.06;5079476;28;20530;-73
2023/02/15 02:08:30;;;;;;;25.90;9.32;;;;;;;-3.01;100.00;96726.69;5086105;28;20047;-73
2023/02/15 02:10:56;;;;;;;25.85;9.15;;;;;;;-3.37;100.00;96732.75;5084213;28;20036;-74
2023/02/15 02:13:21;;;;;;;21.88;10.52;;;;;;;-3.19;100.00;96711.28;5084631;28;20078;-75
2023/02/15 02:15:52;;;;;;;24.85;10.52;;;;;;;-3.23;100.00;96717.72;5069809;28;20430;-74
2023/02/15 02:18:54;;;;;;;44.03;10.77;;;;;;;-3.47;100.00;96706.31;5085593;28;20101;-74
2023/02/15 02:21:29;;;;;;;26.88;9.65;;;;;;;-3.28;100.00;96709.66;5079791;28;20106;-74
2023/02/15 02:24:22;;;;;;;24.42;9.70;;;;;;;-3.28;100.00;96717.38;5094224;28;20041;-74
2023/02/15 02:27:12;;;;;;;33.13;9.73;;;;;;;-3.26;100.00;96712.88;5098954;28;20590;-74
2023/02/15 02:29:48;;;;;;;23.73;8.90;;;;;;;-3.32;100.00;96715.09;5074980;28;20052;-75
2023/02/15 02:32:45;;;;;;;24.80;9.98;;;;;;;-3.30;100.00;96712.38;5082199;28;20051;-75
2023/02/15 02:35:16;;;;;;;35.15;10.85;;;;;;;-3.39;100.00;96719.25;5085216;28;20039;-75
2023/02/15 02:38:07;;;;;;;22.60;9.32;;;;;;;-3.27;100.00;96722.38;5083868;28;20036;-75
2023/02/15 02:41:10;;;;;;;39.00;10.88;;;;;;;-3.51;100.00;96725.59;5084665;28;20046;-75
2023/02/15 02:43:49;;;;;;;28.45;10.18;;;;;;;-3.56;100.00;96727.78;5070059;28;20048;-75
2023/02/15 02:46:34;;;;;;;19.90;9.45;;;;;;;-3.50;100.00;96716.91;5080903;28;20047;-75
2023/02/15 02:49:01;;;;;;;27.17;9.98;;;;;;;-3.57;100.00;96715.91;5081546;28;20089;-75
2023/02/15 02:51:26;;;;;;;26.38;10.00;;;;;;;-3.53;100.00;96704.34;5087324;28;20040;-75
2023/02/15 02:53:56;;;;;;;28.40;10.73;;;;;;;-3.43;100.00;96711.97;5081125;28;20075;-75
2023/02/15 02:56:51;;;;;;;21.20;9.60;;;;;;;-3.45;100.00;96701.81;5079244;28;20492;-76
2023/02/15 02:59:24;;;;;;;20.30;10.23;;;;;;;-3.40;100.00;96697.03;5068998;28;20463;-75
2023/02/15 03:02:00;;;;;;;32.25;10.57;;;;;;;-3.64;100.00;96700.25;5084017;28;20042;-75
2023/02/15 03:04:35;;;;;;;24.77;11.15;;;;;;;-3.58;100.00;96701.41;5075999;28;20040;-75
2023/02/15 03:07:02;;;;;;;;;;;;;;;-3.46;100.00;96697.66;5077034;28;20481;-75
2023/02/15 03:09:42;;;;;;;32.55;8.77;;;;;;;-3.63;100.00;96703.63;5082216;28;19927;-75
2023/02/15 03:12:20;;;;;;;34.30;10.15;;;;;;;-3.57;100.00;96708.19;5083563;28;20044;-74
2023/02/15 03:14:50;;;;;;;19.38;9.10;;;;;;;-3.45;100.00;96708.75;5072977;28;20051;-75
2023/02/15 03:17:18;;;;;;;27.15;10.35;;;;;;;-3.63;100.00;96701.06;5075267;28;20055;-75
2023/02/15 03:19:47;;;;;;;29.38;11.25;;;;;;;-3.47;100.00;96711.47;5083405;28;20426;-75
2023/02/15 03:22:19;;;;;;;18.55;10.15;;;;;;;-3.55;100.00;96708.84;5087362;28;20044;-74
2023/02/15 03:24:56;;;;;;;23.83;9.73;;;;;;;-3.74;100.00;96710.63;5085806;28;20438;-74
2023/02/15 03:27:31;;;;;;;29.52;10.02;;;;;;;-3.72;100.00;96708.72;5088491;28;20032;-74
2023/02/15 03:29:58;;;;;;;21.98;11.00;;;;;;;-3.67;100.00;96709.06;5076558;28;20044;-74
2023/02/15 03:32:28;;;;;;;19.52;10.50;;;;;;;-3.80;100.00;96698.38;5083624;28;20446;-74
2023/02/15 03:34:54;;;;;;;25.65;10.52;;;;;;;-3.73;100.00;96701.97;5076996;28;20070;-74
2023/02/15 03:37:54;;;;;;;46.40;11.73;;;;;;;-3.81;100.00;96699.31;5084113;28;20044;-74
2023/02/15 03:43:37;;;;;;;36.10;11.70;;;;;;;-3.78;100.00;96704.16;5076692;28;20044;-75
2023/02/15 03:46:11;;;;;;;46.42;10.43;;;;;;;-3.82;100.00;96708.03;5083883;28;20040;-74
2023/02/15 03:48:39;;;;;;;;;;;;;;;-3.75;100.00;96711.59;5077422;28;20037;-75
2023/02/15 03:53:58;;;;;;;37.78;11.20;;;;;;;-3.80;100.00;96711.25;5079791;28;20038;-74
2023/02/15 03:56:24;;;;;;;43.42;10.90;;;;;;;-3.74;100.00;96710.63;5087459;28;20055;-74
2023/02/15 04:01:57;;;;;;;25.15;11.88;;;;;;;-3.68;100.00;96704.91;5078617;28;20078;-75
2023/02/15 04:04:27;;;;;;;37.78;11.68;;;;;;;-3.70;100.00;96706.81;5083060;28;20062;-74
2023/02/15 04:06:53;;;;;;;25.45;12.13;;;;;;;-3.64;100.00;96700.25;5081386;28;20403;-75
2023/02/15 04:12:03;;;;;;;23.67;10.32;;;;;;;-3.44;100.00;96706.00;5078186;28;20557;-75
2023/02/15 04:17:33;;;;;;;40.15;10.43;;;;;;;-3.48;100.00;96704.69;5033684;28;20397;-74
2023/02/15 04:25:26;;;;;;;35.15;11.13;;;;;;;-3.55;100.00;96708.84;5084377;28;20040;-74
2023/02/15 04:27:54;;;;;;;43.35;11.15;;;;;;;-3.54;100.00;96705.31;5088314;28;20177;-75
2023/02/15 04:30:22;;;;;;;29.35;11.02;;;;;;;-3.60;100.00;96711.06;5087480;28;20087;-75
2023/02/15 04:32:48;;;;;;;23.38;10.43;;;;;;;-3.56;100.00;96714.94;5080374;28;20082;-75
2023/02/15 04:35:14;;;;;;;27.95;10.73;;;;;;;-3.44;100.00;96716.31;5087728;28;20044;-75
2023/02/15 04:37:40;;;;;;;29.45;10.63;;;;;;;-3.49;100.00;96713.41;5083484;28;20076;-74
2023/02/15 04:40:07;;;;;;;23.80;10.07;;;;;;;-3.48;100.00;96715.00;5084955;28;20114;-75
2023/02/15 04:42:33;;;;;;;22.40;11.13;;;;;;;-3.53;100.00;96717.22;5083970;28;20044;-74
2023/02/15 04:44:59;;;;;;;50.25;11.98;;;;;;;-3.68;100.00;96715.19;5088627;28;20044;-74
2023/02/15 04:47:24;;;;;;;41.53;12.40;;;;;;;-3.76;100.00;96715.13;5082666;28;20064;-75
2023/02/15 04:49:50;;;;;;;29.17;12.80;;;;;;;-3.64;100.00;96709.75;5082608;28;20983;-74
2023/02/15 04:52:17;;;;;;;21.35;10.77;;;;;;;-3.55;100.00;96709.66;5086213;28;20036;-74
2023/02/15 04:54:43;;;;;;;21.92;10.82;;;;;;;-3.49;100.00;96710.81;5092340;28;20040;-75
2023/02/15 04:57:09;;;;;;;21.25;10.88;;;;;;;-3.54;100.00;96711.25;5085995;28;20405;-74
2023/02/15 04:59:35;;;;;;;24.50;10.13;;;;;;;-3.66;100.00;96708.13;5075111;28;20040;-75
2023/02/15 05:02:00;;;;;;;32.63;10.88;;;;;;;-3.68;100.00;96704.91;5076003;28;20509;-75
2023/02/15 05:04:26;;;;;;;33.85;10.13;;;;;;;-3.71;100.00;96710.31;5087681;28;20040;-75
2023/02/15 05:06:51;;;;;;;21.65;11.15;;;;;;;-3.74;100.00;96710.63;5082539;28;20044;-74
2023/02/15 05:09:17;;;;;;;23.60;10.52;;;;;;;-3.93;100.00;96708.25;5082600;28;20063;-74
2023/02/15 05:11:42;;;;;;;27.90;10.98;;;;;;;-3.92;100.00;96717.56;5081638;28;20105;-74
2023/02/15 05:14:08;;;;;;;25.00;9.38;;;;;;;-3.91;100.00;96714.84;5089830;28;20067;-74
2023/02/15 05:16:34;;;;;;;22.42;10.63;;;;;;;-3.72;100.00;96713.06;5085407;28;20510;-73
2023/02/15 05:19:00;;;;;;;22.05;11.13;;;;;;;-3.72;100.00;96716.44;5085483;28;20067;-72
2023/02/15 05:21:25;;;;;;;22.90;11.02;;;;;;;-3.70;100.00;96706.81;5087704;28;20040;-72
2023/02/15 05:23:51;;;;;;;33.33;11.38;;;;;;;-3.88;100.00;96708.59;5089314;28;20446;-73
2023/02/15 05:29:07;;;;;;;23.17;10.18;;;;;;;-3.91;100.00;96711.47;5078676;28;20044;-74
2023/02/15 05:31:33;;;;;;;20.10;9.73;;;;;;;-3.83;100.00;96706.41;5082801;28;20728;-75
2023/02/15 05:33:58;;;;;;;23.17;10.18;;;;;;;-3.95;100.00;96712.72;5085800;28;20041;-72
2023/02/15 05:36:24;;;;;;;37.40;10.10;;;;;;;-4.01;100.00;96712.38;5087179;28;20331;-75
2023/02/15 05:38:49;;;;;;;27.48;10.10;;;;;;;-4.03;100.00;96711.69;5079564;28;20419;-74
2023/02/15 05:41:15;;;;;;;21.95;10.52;;;;;;;-4.14;100.00;96724.75;5076880;28;20037;-74
2023/02/15 05:43:41;;;;;;;28.70;10.05;;;;;;;-4.24;100.00;96718.88;5086156;28;20061;-74
2023/02/15 05:46:07;;;;;;;27.58;11.30;;;;;;;-4.13;100.00;96721.25;5078755;28;20040;-74
2023/02/15 05:48:33;;;;;;;57.75;11.35;;;;;;;-4.28;100.00;96722.69;5088181;28;20040;-74
2023/02/15 05:51:00;;;;;;;31.58;10.10;;;;;;;-4.23;100.00;96725.66;5084864;28;20036;-74
2023/02/15 05:53:26;;;;;;;25.25;10.32;;;;;;;-4.07;100.00;96714.72;5076880;28;20454;-73
2023/02/15 05:55:53;;;;;;;23.40;10.75;;;;;;;-4.04;100.00;96720.38;5071106;28;20036;-72
2023/02/15 05:58:19;;;;;;;20.17;9.40;;;;;;;-3.96;100.00;96722.19;5085049;28;20052;-73
2023/02/15 06:00:45;;;;;;;19.63;10.25;;;;;;;-3.96;100.00;96721.41;5079522;28;20040;-74
2023/02/15 06:03:11;;;;;;;18.98;10.32;;;;;;;-4.00;100.00;96721.69;5080226;28;20051;-73
2023/02/15 06:05:36;;;;;;;22.77;9.18;;;;;;;-4.02;100.00;96723.59;5090877;28;20044;-73
2023/02/15 06:08:02;;;;;;;19.48;9.68;;;;;;;-4.10;100.00;96726.09;5082325;28;20039;-74
2023/02/15 06:10:28;;;;;;;19.92;9.20;;;;;;;-3.96;100.00;96723.97;5077618;28;20044;-73
2023/02/15 06:12:53;;;;;;;30.40;10.93;;;;;;;-4.21;100.00;96723.72;5096865;28;20479;-73
2023/02/15 06:15:19;;;;;;;30.08;10.93;;;;;;;-4.08;100.00;96724.19;5076283;28;20048;-73
2023/02/15 06:17:44;;;;;;;21.90;9.80;;;;;;;-3.98;100.00;96723.31;5074571;28;20511;-74
2023/02/15 06:20:10;;;;;;;25.60;11.23;;;;;;;-4.10;100.00;96727.88;5070351;28;20044;-73
2023/02/15 06:22:36;;;;;;;19.38;10.77;;;;;;;-4.15;100.00;96728.31;5089108;28;20037;-73
2023/02/15 06:25:02;;;;;;;23.98;10.32;;;;;;;-4.02;100.00;96721.03;5095342;28;20154;-74
2023/02/15 06:27:27;;;;;;;24.55;11.35;;;;;;;-4.10;100.00;96741.53;5081834;28;20519;-73
2023/02/15 06:29:53;;;;;;;20.17;10.30;;;;;;;-4.11;100.00;96737.31;5080959;28;20036;-74
2023/02/15 06:32:18;;;;;;;22.70;10.70;;;;;;;-4.19;100.00;96737.28;5084028;28;20043;-74
2023/02/15 06:34:44;;;;;;;22.70;10.65;;;;;;;-4.02;100.00;96733.88;5083823;28;20071;-74
2023/02/15 06:37:10;;;;;;;23.17;10.32;;;;;;;-4.07;100.00;96741.22;5089478;28;20044;-75
2023/02/15 06:39:35;;;;;;;31.55;10.68;;;;;;;-3.95;100.00;96738.44;5081795;28;20044;-73
2023/02/15 06:42:01;;;;;;;27.55;9.90;;;;;;;-3.92;100.00;96733.81;5079771;28;20037;-75
2023/02/15 06:44:26;;;;;;;23.67;10.68;;;;;;;-3.82;100.00;96738.88;5081147;28;20044;-74
2023/02/15 06:46:52;;;;;;;28.05;10.82;;;;;;;-4.07;100.00;96745.56;5087090;28;20666;-75
2023/02/15 06:49:17;;;;;;;26.15;10.43;;;;;;;-3.97;100.00;96740.34;5081340;28;20052;-74
2023/02/15 06:51:43;;;;;;;26.30;11.20;;;;;;;-3.97;100.00;96745.50;5084584;28;20450;-74
2023/02/15 06:54:08;;;;;;;23.27;10.65;;;;;;;-4.10;100.00;96741.53;5083420;28;20043;-76
2023/02/15 06:56:34;;;;;;;35.45;12.13;;;;;;;-3.96;100.00;96747.13;5080779;28;20047;-76
2023/02/15 06:59:00;;;;;;;26.83;11.43;;;;;;;-3.94;100.00;96740.06;5079431;28;20040;-75
2023/02/15 07:01:25;;;;;;;36.47;10.98;;;;;;;-4.07;100.00;96751.50;5073630;28;20056;-74
2023/02/15 07:03:51;;;;;;;33.17;11.73;;;;;;;-3.87;100.00;96751.38;5078512;28;20051;-76
2023/02/15 07:06:16;;;;;;;41.13;11.52;;;;;;;-4.04;100.00;96746.09;5084204;28;20507;-75
2023/02/15 07:08:42;;;;;;;24.88;10.85;;;;;;;-3.96;100.00;96747.91;5076937;28;20040;-76
2023/02/15 07:13:52;;;;;;;29.13;11.38;;;;;;;-3.87;100.00;96756.50;5079521;28;20040;-77
2023/02/15 07:16:18;;;;;;;24.90;10.93;;;;;;;-3.85;100.00;96745.13;5085696;28;20083;-78
2023/02/15 07:18:44;;;;;;;27.02;11.77;;;;;;;-3.83;100.00;96752.69;5080169;28;20041;-79
2023/02/15 07:21:09;;;;;;;24.80;10.70;;;;;;;-3.82;100.00;96754.31;5075647;28;20056;-77
2023/02/15 07:23:36;;;;;;;25.58;11.05;;;;;;;-3.73;100.00;96753.41;5072607;28;20064;-78
2023/02/15 07:26:02;;;;;;;35.63;10.80;;;;;;;-3.86;100.00;96753.00;5086258;28;20040;-77
2023/02/15 07:28:28;;;;;;;26.67;11.80;;;;;;;-3.81;100.00;96750.78;5079792;28;20036;-78
2023/02/15 07:30:53;;;;;;;30.02;11.75;;;;;;;-3.64;100.00;96753.50;5089252;28;20458;-78
2023/02/15 07:33:22;;;;;;;23.95;10.70;;;;;;;-3.72;100.00;96749.91;5077361;28;20036;-77
2023/02/15 07:35:49;;;;;;;26.42;11.38;;;;;;;-3.67;100.00;96747.66;5088448;28;20103;-76
2023/02/15 07:38:15;;;;;;;27.20;12.15;;;;;;;-3.49;100.00;96746.84;5077815;28;20040;-78
2023/02/15 07:40:42;;;;;;;22.70;10.27;;;;;;;-3.62;100.00;96749.00;5075683;28;20514;-79
2023/02/15 07:43:07;;;;;;;24.98;11.73;;;;;;;-3.63;100.00;96737.06;5083296;28;20159;-78
2023/02/15 07:45:33;;;;;;;21.40;10.45;;;;;;;-3.77;100.00;96741.81;5087999;28;20549;-79
2023/02/15 07:48:00;;;;;;;26.25;11.90;;;;;;;-3.89;100.00;96745.56;5084254;28;20444;-79
2023/02/15 07:50:26;;;;;;;26.48;12.20;;;;;;;-3.95;100.00;96743.56;5080813;28;20070;-77
2023/02/15 07:52:52;;;;;;;27.48;11.98;;;;;;;-3.78;100.00;96735.03;5086293;28;20063;-76
2023/02/15 07:55:18;;;;;;;27.05;11.07;;;;;;;-3.49;100.00;96739.94;5088908;28;20060;-77
2023/02/15 07:57:45;;;;;;;31.63;12.02;;;;;;;-3.71;100.00;96736.06;5080918;28;20180;-72
2023/02/15 08:00:16;;;;;;;30.63;14.45;;;;;;;-3.71;100.00;96733.47;5073579;28;20045;-72
2023/02/15 08:02:48;;;;;;;27.98;12.80;;;;;;;-3.39;100.00;96731.28;5081551;28;20044;-73
2023/02/15 08:05:13;;;;;;;24.60;11.55;;;;;;;-3.34;100.00;96737.59;5088011;28;20435;-75
2023/02/15 08:07:39;;;;;;;26.42;12.10;;;;;;;-3.28;100.00;96725.09;5079097;28;20055;-75
2023/02/15 08:10:05;;;;;;;30.25;14.32;;;;;;;-3.26;100.00;96728.31;5092735;28;20058;-74
2023/02/15 08:12:31;;;;;;;27.25;12.13;;;;;;;-3.26;100.00;96729.13;5091158;28;20040;-76
2023/02/15 08:14:56;;;;;;;27.20;11.25;;;;;;;-3.20;100.00;96727.72;5089284;28;20464;-75
2023/02/15 08:17:22;;;;;;;30.23;11.95;;;;;;;-3.19;100.00;96729.31;5089367;28;20078;-76
2023/02/15 08:19:48;;;;;;;28.92;12.80;;;;;;;-3.17;100.00;96730.78;5087666;28;20071;-75
2023/02/15 08:22:14;;;;;;;25.63;12.63;;;;;;;-3.13;100.00;96734.69;5090992;28;20067;-74
2023/02/15 08:24:40;;;;;;;29.20;13.48;;;;;;;-3.05;100.00;96726.19;5085305;28;20044;-75
2023/02/15 08:27:09;;;;;;;28.17;13.38;;;;;;;-2.98;100.00;96724.59;5087160;28;20094;-75
2023/02/15 08:29:37;;;;;;;25.48;11.82;;;;;;;-2.72;100.00;96721.16;5089134;28;20048;-75
2023/02/15 08:32:08;;;;;;;23.02;11.35;;;;;;;-2.81;100.00;96728.06;5081766;28;20503;-75
2023/02/15 08:34:37;;;;;;;19.92;9.57;;;;;;;-2.87;100.00;96722.75;5088761;28;20585;-75
2023/02/15 08:37:03;;;;;;;20.77;10.93;;;;;;;-2.79;100.00;96715.03;5087524;28;20048;-76
2023/02/15 08:39:29;;;;;;;19.77;10.48;;;;;;;-2.83;100.00;96719.69;5091752;28;20063;-75
2023/02/15 08:41:54;;;;;;;21.17;10.90;;;;;;;-2.74;100.00;96728.25;5087908;28;20105;-76
2023/02/15 08:44:20;;;;;;;25.88;12.07;;;;;;;-2.69;100.00;96715.69;5087542;28;20058;-75
2023/02/15 08:46:48;;;;;;;24.02;12.07;;;;;;;-2.89;100.00;96719.50;5085284;28;20040;-74
2023/02/15 08:49:17;;;;;;;21.90;11.15;;;;;;;-2.86;100.00;96714.03;5078796;28;20040;-75
2023/02/15 08:51:43;;;;;;;22.73;11.30;;;;;;;-2.82;100.00;96715.34;5088954;28;20044;-75
2023/02/15 08:54:13;;;;;;;28.20;12.82;;;;;;;-2.90;100.00;96723.03;5089360;28;20044;-74
2023/02/15 08:56:40;;;;;;;24.35;11.68;;;;;;;-2.58;100.00;96726.72;5087308;28;20054;-74
2023/02/15 08:59:11;;;;;;;22.63;11.20;;;;;;;-2.37;100.00;96713.38;5085944;28;20066;-75
2023/02/15 09:01:37;;;;;;;21.60;11.57;;;;;;;-2.59;100.00;96714.78;5088301;28;20126;-75
2023/02/15 09:04:10;;;;;;;22.38;11.05;;;;;;;-2.32;100.00;96714.50;5095428;28;20044;-75
2023/02/15 09:06:37;;;;;;;21.52;11.25;;;;;;;-2.46;100.00;96725.44;5085474;28;20036;-75
2023/02/15 09:09:03;;;;;;;24.35;12.32;;;;;;;-2.51;100.00;96712.22;5075680;28;20044;-75
2023/02/15 09:11:32;;;;;;;25.60;11.63;;;;;;;-2.57;100.00;96713.66;5083049;28;20562;-74
2023/02/15 09:14:00;;;;;;;25.48;11.88;;;;;;;-2.67;100.00;96718.13;5082958;28;20040;-74
2023/02/15 09:16:28;;;;;;;25.63;11.75;;;;;;;-2.54;100.00;96712.53;5075722;28;20041;-74
2023/02/15 09:18:57;;;;;;;25.00;11.80;;;;;;;-2.18;100.00;96717.47;5075223;28;20064;-75
2023/02/15 09:21:24;;;;;;;26.67;12.88;;;;;;;-2.32;100.00;96709.34;5085717;28;20056;-75
2023/02/15 09:23:56;;;;;;;28.45;12.90;;;;;;;-2.25;100.00;96706.16;5079573;28;20054;-74
2023/02/15 09:26:23;;;;;;;30.33;13.13;;;;;;;-2.15;100.00;96711.97;5082414;28;20477;-75
2023/02/15 09:28:53;;;;;;;26.15;13.60;;;;;;;-1.96;100.00;96708.28;5091076;28;20777;-75
2023/02/15 09:31:22;;;;;;;31.88;13.43;;;;;;;-1.69;100.00;96709.72;5071204;28;20063;-75
2023/02/15 09:33:49;;;;;;;22.40;10.77;;;;;;;-1.39;100.00;96712.63;5081576;28;20040;-75
2023/02/15 09:36:17;;;;;;;26.05;13.15;;;;;;;-1.46;100.00;96706.50;5090514;28;20105;-75
2023/02/15 09:38:44;;;;;;;29.70;14.20;;;;;;;-1.42;100.00;96702.63;5082518;28;20044;-75
2023/02/15 09:41:31;;;;;;;29.65;14.00;;;;;;;-1.16;100.00;96711.94;5085425;28;20045;-74
2023/02/15 09:44:39;;;;;;;36.78;15.02;;;;;;;-1.01;100.00;96705.06;5085716;28;20453;-75
2023/02/15 09:47:43;;;;;;;29.90;14.18;;;;;;;-0.88;100.00;96710.53;5081587;28;20032;-74
2023/02/15 09:50:41;;;;;;;30.13;14.03;;;;;;;-0.65;100.00;96709.78;5088194;28;20085;-75
2023/02/15 09:53:44;;;;;;;29.90;13.95;;;;;;;-0.70;100.00;96706.91;5087017;28;20289;-74
2023/02/15 09:56:18;;;;;;;35.30;15.65;;;;;;;-0.57;100.00;96711.53;5086708;28;20082;-75
2023/02/15 09:59:01;;;;;;;34.13;15.88;;;;;;;-0.51;100.00;96704.88;5087348;28;20438;-73
2023/02/15 10:01:46;;;;;;;33.33;16.58;;;;;;;-0.08;100.00;96710.47;5070768;28;20086;-76
2023/02/15 10:04:18;;;;;;;35.92;16.88;;;;;;;0.30;100.00;96707.88;5071192;28;20059;-74
2023/02/15 10:07:27;;;;;;;41.75;17.67;;;;;;;0.73;100.00;96708.16;5073774;28;20044;-75
2023/02/15 10:10:41;;;;;;;41.25;17.38;;;;;;;1.93;100.00;96705.41;5086439;28;20074;-74
2023/02/15 10:13:19;;;;;;;48.58;19.35;;;;;;;2.75;100.00;96691.09;5062597;28;20075;-73
2023/02/15 10:16:22;;;;;;;47.08;17.33;;;;;;;3.75;100.00;96693.31;5076609;28;20043;-74
2023/02/15 10:19:14;;;;;;;41.88;16.95;;;;;;;4.75;100.00;96697.81;5078865;28;20059;-74
2023/02/15 10:21:56;;;;;;;32.70;15.13;;;;;;;3.63;100.00;96688.72;5079228;28;20048;-73
2023/02/15 10:24:38;;;;;;;45.72;18.55;;;;;;;4.74;100.00;96693.59;5081066;28;20108;-73
2023/02/15 10:27:19;;;;;;;46.60;18.63;;;;;;;4.84;100.00;96683.53;5086932;28;20031;-75
2023/02/15 10:30:10;;;;;;;38.33;18.02;;;;;;;5.69;100.00;96686.06;5071842;28;20040;-74
2023/02/15 10:33:14;;;;;;;42.42;17.10;;;;;;;4.13;100.00;96682.38;5089869;27;20032;-73
2023/02/15 10:35:48;;;;;;;49.13;15.02;;;;;;;4.93;100.00;96677.13;5066677;28;20060;-73
2023/02/15 10:38:24;;;;;;;27.08;12.85;;;;;;;5.41;100.00;96677.78;5091514;28;20051;-73
2023/02/15 10:41:15;;;;;;;24.55;12.75;;;;;;;7.11;100.00;96669.06;5079017;28;20036;-75
2023/02/15 10:43:53;;;;;;;21.98;10.30;;;;;;;6.69;100.00;96663.66;5081640;28;20078;-75
2023/02/15 10:46:29;;;;;;;18.13;10.27;;;;;;;6.61;100.00;96666.56;5081183;28;20571;-73
2023/02/15 10:49:16;;;;;;;20.30;9.90;;;;;;;7.15;100.00;96666.03;5079049;28;20537;-75
2023/02/15 10:51:57;;;;;;;17.30;9.45;;;;;;;7.77;100.00;96664.06;5068395;28;20453;-74
2023/02/15 10:54:38;;;;;;;18.17;9.05;;;;;;;8.00;100.00;96657.25;5096645;28;20134;-77
2023/02/15 10:57:22;;;;;;;18.85;9.50;;;;;;;8.88;100.00;96657.50;5085509;28;20089;-74
2023/02/15 11:00:14;;;;;;;24.40;9.60;;;;;;;9.74;100.00;96643.69;5069676;28;20489;-73
2023/02/15 11:02:51;;;;;;;17.27;9.52;;;;;;;11.11;86.78;96644.44;5047002;28;20058;-74
2023/02/15 11:05:32;;;;;;;18.17;9.75;;;;;;;9.69;91.93;96636.47;5070738;28;20105;-75
2023/02/15 11:08:03;;;;;;;17.33;9.38;;;;;;;8.75;100.00;96642.78;5088101;28;20071;-74
2023/02/15 11:10:38;;;;;;;17.25;10.00;;;;;;;9.97;93.11;96631.41;5077398;28;20045;-73
2023/02/15 11:13:16;;;;;;;20.70;10.32;;;;;;;10.73;75.10;96620.50;5085060;28;20071;-75
2023/02/15 11:15:53;;;;;;;18.85;10.48;;;;;;;11.73;72.29;96619.56;5078764;28;20562;-74
2023/02/15 11:18:27;;;;;;;18.83;10.40;;;;;;;12.35;70.67;96614.81;5083453;28;20036;-74
2023/02/15 11:21:03;;;;;;;20.05;10.48;;;;;;;12.11;69.14;96612.53;5078381;28;20048;-73
2023/02/15 11:23:31;;;;;;;19.05;11.10;;;;;;;10.13;76.23;96614.06;5082251;28;20047;-74
2023/02/15 11:26:01;;;;;;;21.63;10.80;;;;;;;10.48;73.41;96605.16;5086542;28;20040;-74
2023/02/15 11:28:53;;;;;;;28.85;12.02;;;;;;;12.73;68.35;96605.03;5094640;28;20040;-74
2023/02/15 11:31:25;;;;;;;21.55;11.52;;;;;;;11.73;71.58;96598.47;5079651;28;20044;-73
2023/02/15 11:34:04;;;;;;;26.05;12.10;;;;;;;13.84;61.68;96586.38;5080045;28;20039;-74
2023/02/15 11:36:37;;;;;;;21.23;11.15;;;;;;;14.50;56.92;96580.25;5097653;28;20671;-73
2023/02/15 11:39:10;;;;;;;24.38;11.38;;;;;;;11.55;64.32;96584.59;5088675;28;20605;-74
2023/02/15 11:41:41;;;;;;;26.83;12.10;;;;;;;12.85;61.97;96584.50;5092626;28;20503;-74
2023/02/15 11:44:32;;;;;;;26.58;12.15;;;;;;;15.66;50.59;96570.53;5090176;28;20120;-74
2023/02/15 11:46:58;;;;;;;23.20;11.57;;;;;;;13.43;54.41;96565.97;5093935;28;20049;-73
2023/02/15 11:49:34;;;;;;;22.92;12.60;;;;;;;14.30;52.46;96562.56;5082244;28;20116;-73
2023/02/15 11:52:07;;;;;;;22.20;12.02;;;;;;;14.48;52.87;96555.91;5093920;28;20046;-74
2023/02/15 11:54:41;;;;;;;24.95;12.43;;;;;;;14.75;46.98;96556.66;5095684;28;20566;-74